sensor_id;sensor_type;location;lat;lon;timestamp;temperature;humidity
27072;DHT22;14613;46.308;25.288;2022-07-05T00:02:12;22.60;74.20
27072;DHT22;14613;46.308;25.288;2022-07-05T00:04:38;22.60;74.30
27072;DHT22;14613;46.308;25.288;2022-07-05T00:07:04;22.50;74.30
27072;DHT22;14613;46.308;25.288;2022-07-05T00:09:53;22.40;74.40
27072;DHT22;14613;46.308;25.288;2022-07-05T00:12:21;22.40;74.70
27072;DHT22;14613;46.308;25.288;2022-07-05T00:14:48;22.30;74.60
27072;DHT22;14613;46.308;25.288;2022-07-05T00:17:15;22.30;74.70
27072;DHT22;14613;46.308;25.288;2022-07-05T00:19:41;22.20;74.90
27072;DHT22;14613;46.308;25.288;2022-07-05T00:22:07;22.10;75.00
27072;DHT22;14613;46.308;25.288;2022-07-05T00:24:33;22.10;75.00
27072;DHT22;14613;46.308;25.288;2022-07-05T00:26:59;22.10;75.20
27072;DHT22;14613;46.308;25.288;2022-07-05T00:29:25;22.00;75.20
27072;DHT22;14613;46.308;25.288;2022-07-05T00:31:50;22.00;75.40
27072;DHT22;14613;46.308;25.288;2022-07-05T00:34:16;21.90;75.50
27072;DHT22;14613;46.308;25.288;2022-07-05T00:36:42;21.90;75.60
27072;DHT22;14613;46.308;25.288;2022-07-05T00:39:08;21.90;75.70
27072;DHT22;14613;46.308;25.288;2022-07-05T00:41:35;21.80;75.70
27072;DHT22;14613;46.308;25.288;2022-07-05T00:44:03;21.80;75.80
27072;DHT22;14613;46.308;25.288;2022-07-05T00:46:29;21.70;75.90
27072;DHT22;14613;46.308;25.288;2022-07-05T00:48:57;21.70;75.90
27072;DHT22;14613;46.308;25.288;2022-07-05T00:51:24;21.60;76.10
27072;DHT22;14613;46.308;25.288;2022-07-05T00:53:50;21.60;76.20
27072;DHT22;14613;46.308;25.288;2022-07-05T00:56:17;21.60;76.30
27072;DHT22;14613;46.308;25.288;2022-07-05T00:58:46;21.60;76.40
27072;DHT22;14613;46.308;25.288;2022-07-05T01:01:12;21.60;76.50
27072;DHT22;14613;46.308;25.288;2022-07-05T01:03:38;21.60;76.40
27072;DHT22;14613;46.308;25.288;2022-07-05T01:06:08;21.60;76.40
27072;DHT22;14613;46.308;25.288;2022-07-05T01:08:38;21.50;77.30
27072;DHT22;14613;46.308;25.288;2022-07-05T01:11:04;21.60;76.50
27072;DHT22;14613;46.308;25.288;2022-07-05T01:13:30;21.60;76.50
27072;DHT22;14613;46.308;25.288;2022-07-05T01:15:57;21.50;76.40
27072;DHT22;14613;46.308;25.288;2022-07-05T01:18:23;21.50;76.50
27072;DHT22;14613;46.308;25.288;2022-07-05T01:20:50;21.50;76.60
27072;DHT22;14613;46.308;25.288;2022-07-05T01:23:20;21.50;76.70
27072;DHT22;14613;46.308;25.288;2022-07-05T01:25:49;21.50;76.80
27072;DHT22;14613;46.308;25.288;2022-07-05T01:28:15;21.40;76.80
27072;DHT22;14613;46.308;25.288;2022-07-05T01:30:42;21.40;76.80
27072;DHT22;14613;46.308;25.288;2022-07-05T01:33:09;21.40;76.90
27072;DHT22;14613;46.308;25.288;2022-07-05T01:35:35;21.40;77.00
27072;DHT22;14613;46.308;25.288;2022-07-05T01:38:01;21.30;77.00
27072;DHT22;14613;46.308;25.288;2022-07-05T01:40:27;21.30;77.10
27072;DHT22;14613;46.308;25.288;2022-07-05T01:42:53;21.20;77.10
27072;DHT22;14613;46.308;25.288;2022-07-05T01:45:20;21.20;77.20
27072;DHT22;14613;46.308;25.288;2022-07-05T01:48:09;21.10;77.40
27072;DHT22;14613;46.308;25.288;2022-07-05T01:50:58;21.10;77.50
27072;DHT22;14613;46.308;25.288;2022-07-05T01:53:29;21.00;77.70
27072;DHT22;14613;46.308;25.288;2022-07-05T01:56:01;21.00;77.50
27072;DHT22;14613;46.308;25.288;2022-07-05T01:58:29;21.00;77.70
27072;DHT22;14613;46.308;25.288;2022-07-05T02:00:56;21.00;77.70
27072;DHT22;14613;46.308;25.288;2022-07-05T02:03:23;20.90;77.70
27072;DHT22;14613;46.308;25.288;2022-07-05T02:05:49;20.90;77.70
27072;DHT22;14613;46.308;25.288;2022-07-05T02:08:16;20.90;77.70
27072;DHT22;14613;46.308;25.288;2022-07-05T02:11:18;20.90;77.80
27072;DHT22;14613;46.308;25.288;2022-07-05T02:14:10;20.80;78.20
27072;DHT22;14613;46.308;25.288;2022-07-05T02:16:46;20.70;78.40
27072;DHT22;14613;46.308;25.288;2022-07-05T02:19:12;20.60;79.00
27072;DHT22;14613;46.308;25.288;2022-07-05T02:21:38;20.50;78.50
27072;DHT22;14613;46.308;25.288;2022-07-05T02:24:07;20.50;78.70
27072;DHT22;14613;46.308;25.288;2022-07-05T02:26:33;20.50;78.90
27072;DHT22;14613;46.308;25.288;2022-07-05T02:28:59;20.50;78.90
27072;DHT22;14613;46.308;25.288;2022-07-05T02:31:25;20.50;79.00
27072;DHT22;14613;46.308;25.288;2022-07-05T02:33:51;20.50;79.00
27072;DHT22;14613;46.308;25.288;2022-07-05T02:36:17;20.50;78.90
27072;DHT22;14613;46.308;25.288;2022-07-05T02:38:43;20.50;78.80
27072;DHT22;14613;46.308;25.288;2022-07-05T02:41:10;20.60;78.80
27072;DHT22;14613;46.308;25.288;2022-07-05T02:43:37;20.60;78.90
27072;DHT22;14613;46.308;25.288;2022-07-05T02:46:04;20.70;79.00
27072;DHT22;14613;46.308;25.288;2022-07-05T02:48:32;20.70;79.00
27072;DHT22;14613;46.308;25.288;2022-07-05T02:50:58;20.70;79.80
27072;DHT22;14613;46.308;25.288;2022-07-05T02:53:24;20.70;78.90
27072;DHT22;14613;46.308;25.288;2022-07-05T02:55:50;20.70;79.80
27072;DHT22;14613;46.308;25.288;2022-07-05T02:58:16;20.70;79.10
27072;DHT22;14613;46.308;25.288;2022-07-05T03:00:43;20.80;79.30
27072;DHT22;14613;46.308;25.288;2022-07-05T03:03:09;20.80;79.40
27072;DHT22;14613;46.308;25.288;2022-07-05T03:05:35;20.90;79.50
27072;DHT22;14613;46.308;25.288;2022-07-05T03:08:01;21.00;79.40
27072;DHT22;14613;46.308;25.288;2022-07-05T03:10:26;21.20;79.40
27072;DHT22;14613;46.308;25.288;2022-07-05T03:12:52;21.40;79.40
27072;DHT22;14613;46.308;25.288;2022-07-05T03:15:18;21.60;79.20
27072;DHT22;14613;46.308;25.288;2022-07-05T03:17:44;21.80;79.00
27072;DHT22;14613;46.308;25.288;2022-07-05T03:20:10;22.00;78.70
27072;DHT22;14613;46.308;25.288;2022-07-05T03:22:35;22.20;78.20
27072;DHT22;14613;46.308;25.288;2022-07-05T03:25:01;22.40;77.70
27072;DHT22;14613;46.308;25.288;2022-07-05T03:27:28;22.60;77.30
27072;DHT22;14613;46.308;25.288;2022-07-05T03:29:54;22.90;77.80
27072;DHT22;14613;46.308;25.288;2022-07-05T03:32:19;23.10;76.50
27072;DHT22;14613;46.308;25.288;2022-07-05T03:34:45;23.50;76.10
27072;DHT22;14613;46.308;25.288;2022-07-05T03:37:11;23.70;75.30
27072;DHT22;14613;46.308;25.288;2022-07-05T03:39:36;24.00;74.70
27072;DHT22;14613;46.308;25.288;2022-07-05T03:42:02;24.30;74.20
27072;DHT22;14613;46.308;25.288;2022-07-05T03:44:28;24.60;73.40
27072;DHT22;14613;46.308;25.288;2022-07-05T03:46:57;25.00;72.70
27072;DHT22;14613;46.308;25.288;2022-07-05T03:49:23;25.30;72.00
27072;DHT22;14613;46.308;25.288;2022-07-05T03:51:48;25.70;71.40
27072;DHT22;14613;46.308;25.288;2022-07-05T03:54:14;26.00;70.40
27072;DHT22;14613;46.308;25.288;2022-07-05T03:56:40;26.40;69.40
27072;DHT22;14613;46.308;25.288;2022-07-05T03:59:06;26.60;68.50
27072;DHT22;14613;46.308;25.288;2022-07-05T04:01:31;26.80;67.60
27072;DHT22;14613;46.308;25.288;2022-07-05T04:03:57;27.00;66.80
27072;DHT22;14613;46.308;25.288;2022-07-05T04:06:23;27.20;66.20
27072;DHT22;14613;46.308;25.288;2022-07-05T04:08:48;27.40;65.60
27072;DHT22;14613;46.308;25.288;2022-07-05T04:11:14;27.60;64.90
27072;DHT22;14613;46.308;25.288;2022-07-05T04:13:42;27.80;64.40
27072;DHT22;14613;46.308;25.288;2022-07-05T04:16:08;28.00;64.00
27072;DHT22;14613;46.308;25.288;2022-07-05T04:18:34;28.30;63.40
27072;DHT22;14613;46.308;25.288;2022-07-05T04:21:00;28.50;62.80
27072;DHT22;14613;46.308;25.288;2022-07-05T04:23:26;28.90;62.20
27072;DHT22;14613;46.308;25.288;2022-07-05T04:25:51;29.10;61.30
27072;DHT22;14613;46.308;25.288;2022-07-05T04:28:17;29.40;60.60
27072;DHT22;14613;46.308;25.288;2022-07-05T04:30:43;29.70;60.10
27072;DHT22;14613;46.308;25.288;2022-07-05T04:33:08;30.10;59.60
27072;DHT22;14613;46.308;25.288;2022-07-05T04:35:34;30.40;59.00
27072;DHT22;14613;46.308;25.288;2022-07-05T04:38:00;30.70;58.30
27072;DHT22;14613;46.308;25.288;2022-07-05T04:40:26;31.00;57.90
27072;DHT22;14613;46.308;25.288;2022-07-05T04:42:52;31.30;57.10
27072;DHT22;14613;46.308;25.288;2022-07-05T04:45:17;31.60;56.60
27072;DHT22;14613;46.308;25.288;2022-07-05T04:47:43;31.80;56.00
27072;DHT22;14613;46.308;25.288;2022-07-05T04:50:09;32.00;55.50
27072;DHT22;14613;46.308;25.288;2022-07-05T04:52:35;32.20;55.00
27072;DHT22;14613;46.308;25.288;2022-07-05T04:55:24;32.40;54.50
27072;DHT22;14613;46.308;25.288;2022-07-05T04:57:52;32.60;53.10
27072;DHT22;14613;46.308;25.288;2022-07-05T05:00:18;32.60;53.50
27072;DHT22;14613;46.308;25.288;2022-07-05T05:02:44;32.80;53.30
27072;DHT22;14613;46.308;25.288;2022-07-05T05:05:09;33.00;52.80
27072;DHT22;14613;46.308;25.288;2022-07-05T05:07:35;33.30;52.50
27072;DHT22;14613;46.308;25.288;2022-07-05T05:10:04;33.40;52.10
27072;DHT22;14613;46.308;25.288;2022-07-05T05:12:30;33.60;51.70
27072;DHT22;14613;46.308;25.288;2022-07-05T05:14:56;33.90;51.30
27072;DHT22;14613;46.308;25.288;2022-07-05T05:17:21;33.90;50.70
27072;DHT22;14613;46.308;25.288;2022-07-05T05:19:47;34.00;50.40
27072;DHT22;14613;46.308;25.288;2022-07-05T05:22:13;34.10;50.20
27072;DHT22;14613;46.308;25.288;2022-07-05T05:24:38;34.20;49.80
27072;DHT22;14613;46.308;25.288;2022-07-05T05:27:04;34.40;49.70
27072;DHT22;14613;46.308;25.288;2022-07-05T05:29:30;34.60;49.30
27072;DHT22;14613;46.308;25.288;2022-07-05T05:31:56;34.70;48.90
27072;DHT22;14613;46.308;25.288;2022-07-05T05:34:21;34.80;48.50
27072;DHT22;14613;46.308;25.288;2022-07-05T05:36:47;34.90;48.40
27072;DHT22;14613;46.308;25.288;2022-07-05T05:39:13;35.00;48.10
27072;DHT22;14613;46.308;25.288;2022-07-05T05:41:39;35.10;47.90
27072;DHT22;14613;46.308;25.288;2022-07-05T05:44:05;35.40;48.00
27072;DHT22;14613;46.308;25.288;2022-07-05T05:46:31;35.60;48.30
27072;DHT22;14613;46.308;25.288;2022-07-05T05:48:56;35.70;46.90
27072;DHT22;14613;46.308;25.288;2022-07-05T05:51:24;35.60;46.60
27072;DHT22;14613;46.308;25.288;2022-07-05T05:53:49;35.60;46.70
27072;DHT22;14613;46.308;25.288;2022-07-05T05:56:15;35.80;46.90
27072;DHT22;14613;46.308;25.288;2022-07-05T05:58:41;36.00;46.70
27072;DHT22;14613;46.308;25.288;2022-07-05T06:01:06;36.20;46.40
27072;DHT22;14613;46.308;25.288;2022-07-05T06:03:32;36.30;45.80
27072;DHT22;14613;46.308;25.288;2022-07-05T06:05:58;36.40;45.70
27072;DHT22;14613;46.308;25.288;2022-07-05T06:08:24;36.50;45.50
27072;DHT22;14613;46.308;25.288;2022-07-05T06:10:49;36.60;45.20
27072;DHT22;14613;46.308;25.288;2022-07-05T06:13:15;36.70;45.00
27072;DHT22;14613;46.308;25.288;2022-07-05T06:15:42;36.90;44.80
27072;DHT22;14613;46.308;25.288;2022-07-05T06:18:10;37.00;44.40
27072;DHT22;14613;46.308;25.288;2022-07-05T06:20:38;37.20;44.20
27072;DHT22;14613;46.308;25.288;2022-07-05T06:23:05;37.40;44.20
27072;DHT22;14613;46.308;25.288;2022-07-05T06:25:32;37.60;44.00
27072;DHT22;14613;46.308;25.288;2022-07-05T06:28:03;37.80;43.70
27072;DHT22;14613;46.308;25.288;2022-07-05T06:30:31;38.10;43.30
27072;DHT22;14613;46.308;25.288;2022-07-05T06:32:57;38.30;43.50
27072;DHT22;14613;46.308;25.288;2022-07-05T06:35:24;38.40;42.90
27072;DHT22;14613;46.308;25.288;2022-07-05T06:40:29;38.80;42.10
27072;DHT22;14613;46.308;25.288;2022-07-05T06:42:58;38.90;41.90
27072;DHT22;14613;46.308;25.288;2022-07-05T06:45:24;39.00;41.90
27072;DHT22;14613;46.308;25.288;2022-07-05T06:48:01;39.00;41.70
27072;DHT22;14613;46.308;25.288;2022-07-05T06:50:28;39.10;41.50
27072;DHT22;14613;46.308;25.288;2022-07-05T06:52:55;39.20;41.40
27072;DHT22;14613;46.308;25.288;2022-07-05T06:55:21;39.30;41.30
27072;DHT22;14613;46.308;25.288;2022-07-05T06:57:48;39.40;41.30
27072;DHT22;14613;46.308;25.288;2022-07-05T07:00:15;39.40;40.80
27072;DHT22;14613;46.308;25.288;2022-07-05T07:02:41;39.40;40.70
27072;DHT22;14613;46.308;25.288;2022-07-05T07:05:07;39.50;40.70
27072;DHT22;14613;46.308;25.288;2022-07-05T07:07:34;39.50;40.50
27072;DHT22;14613;46.308;25.288;2022-07-05T07:10:18;39.50;40.40
27072;DHT22;14613;46.308;25.288;2022-07-05T07:12:44;39.50;40.40
27072;DHT22;14613;46.308;25.288;2022-07-05T07:15:10;39.40;40.40
27072;DHT22;14613;46.308;25.288;2022-07-05T07:17:36;39.40;40.30
27072;DHT22;14613;46.308;25.288;2022-07-05T07:20:02;39.40;40.40
27072;DHT22;14613;46.308;25.288;2022-07-05T07:22:28;39.40;40.20
27072;DHT22;14613;46.308;25.288;2022-07-05T07:24:54;39.40;40.20
27072;DHT22;14613;46.308;25.288;2022-07-05T07:27:20;39.40;40.20
27072;DHT22;14613;46.308;25.288;2022-07-05T07:29:46;39.40;40.20
27072;DHT22;14613;46.308;25.288;2022-07-05T07:32:12;39.50;40.30
27072;DHT22;14613;46.308;25.288;2022-07-05T07:34:38;39.60;40.30
27072;DHT22;14613;46.308;25.288;2022-07-05T07:37:05;39.50;40.00
27072;DHT22;14613;46.308;25.288;2022-07-05T07:39:32;39.60;39.60
27072;DHT22;14613;46.308;25.288;2022-07-05T07:41:57;39.60;39.50
27072;DHT22;14613;46.308;25.288;2022-07-05T07:44:24;39.50;39.10
27072;DHT22;14613;46.308;25.288;2022-07-05T07:46:50;39.50;39.20
27072;DHT22;14613;46.308;25.288;2022-07-05T07:49:16;39.40;39.30
27072;DHT22;14613;46.308;25.288;2022-07-05T07:51:42;39.40;39.40
27072;DHT22;14613;46.308;25.288;2022-07-05T07:54:08;39.40;39.10
27072;DHT22;14613;46.308;25.288;2022-07-05T07:56:34;39.20;38.80
27072;DHT22;14613;46.308;25.288;2022-07-05T07:59:00;39.10;38.40
27072;DHT22;14613;46.308;25.288;2022-07-05T08:01:26;39.00;38.30
27072;DHT22;14613;46.308;25.288;2022-07-05T08:03:52;39.10;38.40
27072;DHT22;14613;46.308;25.288;2022-07-05T08:06:18;39.10;38.50
27072;DHT22;14613;46.308;25.288;2022-07-05T08:08:44;39.10;38.70
27072;DHT22;14613;46.308;25.288;2022-07-05T08:11:12;39.20;38.80
27072;DHT22;14613;46.308;25.288;2022-07-05T08:13:38;39.20;38.40
27072;DHT22;14613;46.308;25.288;2022-07-05T08:16:06;39.10;38.20
27072;DHT22;14613;46.308;25.288;2022-07-05T08:18:33;39.00;37.60
27072;DHT22;14613;46.308;25.288;2022-07-05T08:21:17;38.90;37.70
27072;DHT22;14613;46.308;25.288;2022-07-05T08:24:08;38.90;37.90
27072;DHT22;14613;46.308;25.288;2022-07-05T08:26:35;38.80;37.40
27072;DHT22;14613;46.308;25.288;2022-07-05T08:29:03;38.80;37.60
27072;DHT22;14613;46.308;25.288;2022-07-05T08:31:30;38.90;37.50
27072;DHT22;14613;46.308;25.288;2022-07-05T08:33:56;38.90;37.30
27072;DHT22;14613;46.308;25.288;2022-07-05T08:36:22;39.00;37.30
27072;DHT22;14613;46.308;25.288;2022-07-05T08:38:48;39.00;37.30
27072;DHT22;14613;46.308;25.288;2022-07-05T08:41:18;39.10;37.40
27072;DHT22;14613;46.308;25.288;2022-07-05T08:43:46;39.00;36.80
27072;DHT22;14613;46.308;25.288;2022-07-05T08:46:14;39.10;36.80
27072;DHT22;14613;46.308;25.288;2022-07-05T08:48:42;39.20;36.90
27072;DHT22;14613;46.308;25.288;2022-07-05T08:53:40;39.10;35.60
27072;DHT22;14613;46.308;25.288;2022-07-05T08:56:08;38.90;35.20
27072;DHT22;14613;46.308;25.288;2022-07-05T08:58:34;38.60;35.40
27072;DHT22;14613;46.308;25.288;2022-07-05T09:01:01;38.40;35.40
27072;DHT22;14613;46.308;25.288;2022-07-05T09:03:32;38.20;35.00
27072;DHT22;14613;46.308;25.288;2022-07-05T09:06:01;38.00;34.90
27072;DHT22;14613;46.308;25.288;2022-07-05T09:08:30;37.90;35.20
27072;DHT22;14613;46.308;25.288;2022-07-05T09:11:01;38.10;35.50
27072;DHT22;14613;46.308;25.288;2022-07-05T09:13:32;38.20;34.80
27072;DHT22;14613;46.308;25.288;2022-07-05T09:15:58;38.20;34.80
27072;DHT22;14613;46.308;25.288;2022-07-05T09:19:03;38.10;33.60
27072;DHT22;14613;46.308;25.288;2022-07-05T09:21:29;37.80;33.30
27072;DHT22;14613;46.308;25.288;2022-07-05T09:24:03;37.60;33.60
27072;DHT22;14613;46.308;25.288;2022-07-05T09:26:44;37.50;34.40
27072;DHT22;14613;46.308;25.288;2022-07-05T09:29:20;37.60;34.80
27072;DHT22;14613;46.308;25.288;2022-07-05T09:31:48;37.80;34.70
27072;DHT22;14613;46.308;25.288;2022-07-05T09:34:21;37.80;34.70
27072;DHT22;14613;46.308;25.288;2022-07-05T09:36:51;37.90;34.90
27072;DHT22;14613;46.308;25.288;2022-07-05T09:39:18;38.10;35.30
27072;DHT22;14613;46.308;25.288;2022-07-05T09:44:48;38.40;35.00
27072;DHT22;14613;46.308;25.288;2022-07-05T09:47:17;38.40;34.90
27072;DHT22;14613;46.308;25.288;2022-07-05T09:49:46;38.30;34.90
27072;DHT22;14613;46.308;25.288;2022-07-05T09:52:26;38.20;34.70
27072;DHT22;14613;46.308;25.288;2022-07-05T09:55:13;38.00;34.30
27072;DHT22;14613;46.308;25.288;2022-07-05T09:57:44;37.70;34.20
27072;DHT22;14613;46.308;25.288;2022-07-05T10:00:15;37.50;34.70
27072;DHT22;14613;46.308;25.288;2022-07-05T10:02:52;37.50;35.20
27072;DHT22;14613;46.308;25.288;2022-07-05T10:05:23;37.70;35.40
27072;DHT22;14613;46.308;25.288;2022-07-05T10:08:00;37.90;35.30
27072;DHT22;14613;46.308;25.288;2022-07-05T10:10:31;38.10;35.00
27072;DHT22;14613;46.308;25.288;2022-07-05T10:13:03;38.30;34.90
27072;DHT22;14613;46.308;25.288;2022-07-05T10:15:33;38.50;34.50
27072;DHT22;14613;46.308;25.288;2022-07-05T10:18:03;38.50;34.30
27072;DHT22;14613;46.308;25.288;2022-07-05T10:20:39;38.70;34.10
27072;DHT22;14613;46.308;25.288;2022-07-05T10:23:11;38.70;34.10
27072;DHT22;14613;46.308;25.288;2022-07-05T10:25:38;38.50;33.10
27072;DHT22;14613;46.308;25.288;2022-07-05T10:28:05;38.50;33.70
27072;DHT22;14613;46.308;25.288;2022-07-05T10:30:32;38.60;33.80
27072;DHT22;14613;46.308;25.288;2022-07-05T10:33:01;38.80;33.30
27072;DHT22;14613;46.308;25.288;2022-07-05T10:35:29;38.60;32.60
27072;DHT22;14613;46.308;25.288;2022-07-05T10:37:56;38.40;32.50
27072;DHT22;14613;46.308;25.288;2022-07-05T10:40:22;38.40;32.80
27072;DHT22;14613;46.308;25.288;2022-07-05T10:42:56;38.50;32.90
27072;DHT22;14613;46.308;25.288;2022-07-05T10:45:25;38.70;32.00
27072;DHT22;14613;46.308;25.288;2022-07-05T10:50:55;37.90;31.40
27072;DHT22;14613;46.308;25.288;2022-07-05T10:53:22;37.90;32.40
27072;DHT22;14613;46.308;25.288;2022-07-05T11:00:42;38.70;33.10
27072;DHT22;14613;46.308;25.288;2022-07-05T11:03:32;38.60;32.30
27072;DHT22;14613;46.308;25.288;2022-07-05T11:05:58;38.10;31.90
27072;DHT22;14613;46.308;25.288;2022-07-05T11:08:24;37.70;32.40
27072;DHT22;14613;46.308;25.288;2022-07-05T11:11:09;37.60;32.50
27072;DHT22;14613;46.308;25.288;2022-07-05T11:13:38;37.40;33.00
27072;DHT22;14613;46.308;25.288;2022-07-05T11:16:22;37.30;33.40
27072;DHT22;14613;46.308;25.288;2022-07-05T11:18:50;37.20;33.70
27072;DHT22;14613;46.308;25.288;2022-07-05T11:21:21;37.30;33.90
27072;DHT22;14613;46.308;25.288;2022-07-05T11:23:48;37.60;33.80
27072;DHT22;14613;46.308;25.288;2022-07-05T11:26:17;38.00;34.00
27072;DHT22;14613;46.308;25.288;2022-07-05T11:28:46;38.30;33.30
27072;DHT22;14613;46.308;25.288;2022-07-05T11:31:40;38.50;32.50
27072;DHT22;14613;46.308;25.288;2022-07-05T11:34:13;38.50;31.90
27072;DHT22;14613;46.308;25.288;2022-07-05T11:36:39;38.70;31.90
27072;DHT22;14613;46.308;25.288;2022-07-05T11:39:09;38.80;31.50
27072;DHT22;14613;46.308;25.288;2022-07-05T11:41:37;38.90;31.00
27072;DHT22;14613;46.308;25.288;2022-07-05T11:44:06;39.00;30.90
27072;DHT22;14613;46.308;25.288;2022-07-05T11:46:33;39.10;30.50
27072;DHT22;14613;46.308;25.288;2022-07-05T11:49:00;39.10;30.20
27072;DHT22;14613;46.308;25.288;2022-07-05T11:51:26;39.30;30.10
27072;DHT22;14613;46.308;25.288;2022-07-05T11:53:52;39.40;29.80
27072;DHT22;14613;46.308;25.288;2022-07-05T11:56:18;39.50;29.50
27072;DHT22;14613;46.308;25.288;2022-07-05T11:58:44;39.60;29.50
27072;DHT22;14613;46.308;25.288;2022-07-05T12:01:10;39.80;29.50
27072;DHT22;14613;46.308;25.288;2022-07-05T12:03:36;39.90;29.40
27072;DHT22;14613;46.308;25.288;2022-07-05T12:06:12;40.00;29.00
27072;DHT22;14613;46.308;25.288;2022-07-05T12:08:38;40.20;28.40
27072;DHT22;14613;46.308;25.288;2022-07-05T12:11:04;40.20;28.30
27072;DHT22;14613;46.308;25.288;2022-07-05T12:13:50;40.20;27.90
27072;DHT22;14613;46.308;25.288;2022-07-05T12:16:16;39.90;27.90
27072;DHT22;14613;46.308;25.288;2022-07-05T12:18:51;39.80;28.20
27072;DHT22;14613;46.308;25.288;2022-07-05T12:21:18;39.90;28.40
27072;DHT22;14613;46.308;25.288;2022-07-05T12:23:48;40.10;28.70
27072;DHT22;14613;46.308;25.288;2022-07-05T12:26:15;40.20;28.70
27072;DHT22;14613;46.308;25.288;2022-07-05T12:28:42;40.30;28.60
27072;DHT22;14613;46.308;25.288;2022-07-05T12:31:22;40.30;28.70
27072;DHT22;14613;46.308;25.288;2022-07-05T12:33:50;40.50;28.80
27072;DHT22;14613;46.308;25.288;2022-07-05T12:36:18;40.60;28.90
27072;DHT22;14613;46.308;25.288;2022-07-05T12:38:44;40.60;29.00
27072;DHT22;14613;46.308;25.288;2022-07-05T12:41:10;40.70;29.20
27072;DHT22;14613;46.308;25.288;2022-07-05T12:43:50;40.70;29.20
27072;DHT22;14613;46.308;25.288;2022-07-05T12:46:16;40.80;28.70
27072;DHT22;14613;46.308;25.288;2022-07-05T12:48:42;40.80;28.70
27072;DHT22;14613;46.308;25.288;2022-07-05T12:51:09;40.90;28.60
27072;DHT22;14613;46.308;25.288;2022-07-05T12:53:44;40.90;28.40
27072;DHT22;14613;46.308;25.288;2022-07-05T12:56:29;40.90;28.30
27072;DHT22;14613;46.308;25.288;2022-07-05T12:59:13;40.60;28.60
27072;DHT22;14613;46.308;25.288;2022-07-05T13:01:41;40.50;29.10
27072;DHT22;14613;46.308;25.288;2022-07-05T13:04:12;40.50;29.20
27072;DHT22;14613;46.308;25.288;2022-07-05T13:06:57;40.60;29.20
27072;DHT22;14613;46.308;25.288;2022-07-05T13:12:14;40.80;29.30
27072;DHT22;14613;46.308;25.288;2022-07-05T13:14:47;40.70;29.10
27072;DHT22;14613;46.308;25.288;2022-07-05T13:17:15;40.50;29.20
27072;DHT22;14613;46.308;25.288;2022-07-05T13:19:42;40.20;29.40
27072;DHT22;14613;46.308;25.288;2022-07-05T13:22:09;40.10;29.60
27072;DHT22;14613;46.308;25.288;2022-07-05T13:24:35;40.00;29.70
27072;DHT22;14613;46.308;25.288;2022-07-05T13:27:02;39.90;29.80
27072;DHT22;14613;46.308;25.288;2022-07-05T13:29:28;39.80;29.80
27072;DHT22;14613;46.308;25.288;2022-07-05T13:31:54;39.70;29.90
27072;DHT22;14613;46.308;25.288;2022-07-05T13:34:21;39.60;29.90
27072;DHT22;14613;46.308;25.288;2022-07-05T13:36:54;39.60;30.00
27072;DHT22;14613;46.308;25.288;2022-07-05T13:39:21;39.50;30.10
27072;DHT22;14613;46.308;25.288;2022-07-05T13:41:49;39.40;30.10
27072;DHT22;14613;46.308;25.288;2022-07-05T13:44:15;39.40;30.40
27072;DHT22;14613;46.308;25.288;2022-07-05T13:46:41;39.40;30.40
27072;DHT22;14613;46.308;25.288;2022-07-05T13:49:06;39.30;30.30
27072;DHT22;14613;46.308;25.288;2022-07-05T13:51:32;39.30;30.10
27072;DHT22;14613;46.308;25.288;2022-07-05T13:53:58;39.30;30.00
27072;DHT22;14613;46.308;25.288;2022-07-05T13:56:24;39.20;30.00
27072;DHT22;14613;46.308;25.288;2022-07-05T13:58:52;39.00;30.00
27072;DHT22;14613;46.308;25.288;2022-07-05T14:01:18;38.90;30.20
27072;DHT22;14613;46.308;25.288;2022-07-05T14:03:46;38.90;30.50
27072;DHT22;14613;46.308;25.288;2022-07-05T14:06:12;38.90;30.90
27072;DHT22;14613;46.308;25.288;2022-07-05T14:08:37;38.90;31.40
27072;DHT22;14613;46.308;25.288;2022-07-05T14:11:03;38.90;31.80
27072;DHT22;14613;46.308;25.288;2022-07-05T14:13:29;38.90;32.30
27072;DHT22;14613;46.308;25.288;2022-07-05T14:15:55;38.80;32.50
27072;DHT22;14613;46.308;25.288;2022-07-05T14:18:21;38.80;32.70
27072;DHT22;14613;46.308;25.288;2022-07-05T14:20:50;38.80;32.90
27072;DHT22;14613;46.308;25.288;2022-07-05T14:23:16;38.80;33.00
27072;DHT22;14613;46.308;25.288;2022-07-05T14:25:42;38.70;33.00
27072;DHT22;14613;46.308;25.288;2022-07-05T14:28:08;38.70;33.10
27072;DHT22;14613;46.308;25.288;2022-07-05T14:33:01;38.70;33.30
27072;DHT22;14613;46.308;25.288;2022-07-05T14:35:28;38.60;33.40
27072;DHT22;14613;46.308;25.288;2022-07-05T14:37:54;38.60;33.60
27072;DHT22;14613;46.308;25.288;2022-07-05T14:40:20;38.50;33.80
27072;DHT22;14613;46.308;25.288;2022-07-05T14:42:46;38.50;34.00
27072;DHT22;14613;46.308;25.288;2022-07-05T14:45:12;38.30;34.20
27072;DHT22;14613;46.308;25.288;2022-07-05T14:47:37;38.20;34.30
27072;DHT22;14613;46.308;25.288;2022-07-05T14:50:04;38.00;34.40
27072;DHT22;14613;46.308;25.288;2022-07-05T14:52:29;37.70;34.70
27072;DHT22;14613;46.308;25.288;2022-07-05T14:54:56;37.50;35.00
27072;DHT22;14613;46.308;25.288;2022-07-05T14:57:29;37.30;35.40
27072;DHT22;14613;46.308;25.288;2022-07-05T14:59:55;37.20;35.70
27072;DHT22;14613;46.308;25.288;2022-07-05T15:02:21;37.20;35.80
27072;DHT22;14613;46.308;25.288;2022-07-05T15:04:46;37.20;35.90
27072;DHT22;14613;46.308;25.288;2022-07-05T15:07:12;37.00;35.70
27072;DHT22;14613;46.308;25.288;2022-07-05T15:09:38;36.90;35.70
27072;DHT22;14613;46.308;25.288;2022-07-05T15:12:04;36.80;35.90
27072;DHT22;14613;46.308;25.288;2022-07-05T15:14:30;36.70;36.10
27072;DHT22;14613;46.308;25.288;2022-07-05T15:16:56;36.70;36.30
27072;DHT22;14613;46.308;25.288;2022-07-05T15:19:22;36.70;36.60
27072;DHT22;14613;46.308;25.288;2022-07-05T15:21:49;36.50;36.80
27072;DHT22;14613;46.308;25.288;2022-07-05T15:24:15;36.30;37.10
27072;DHT22;14613;46.308;25.288;2022-07-05T15:26:42;36.20;37.40
27072;DHT22;14613;46.308;25.288;2022-07-05T15:29:09;36.10;37.70
27072;DHT22;14613;46.308;25.288;2022-07-05T15:31:36;35.90;38.00
27072;DHT22;14613;46.308;25.288;2022-07-05T15:34:03;35.90;38.40
27072;DHT22;14613;46.308;25.288;2022-07-05T15:36:30;35.80;38.80
27072;DHT22;14613;46.308;25.288;2022-07-05T15:39:00;35.70;38.90
27072;DHT22;14613;46.308;25.288;2022-07-05T15:41:30;35.70;39.10
27072;DHT22;14613;46.308;25.288;2022-07-05T15:43:56;35.70;39.20